Time;durP1;ratioP1;P1;durP2;ratioP2;P2;SDS_P1;SDS_P2;PMS_P1;PMS_P2;Temp;Humidity;BMP_temperature;BMP_pressure;BME280_temperature;BME280_humidity;BME280_pressure;Samples;Min_cycle;Max_cycle;Signal;HPM_P1;HPM_P2
2022/04/08 00:01:28;;;;;;;26.92;3.50;;;8.20;99.90;;;;;;5088730;28;20393;-68
2022/04/08 00:03:55;;;;;;;22.67;3.60;;;8.20;99.90;;;;;;5086954;28;20409;-67
2022/04/08 00:06:22;;;;;;;25.98;3.78;;;8.20;99.90;;;;;;5086317;28;20409;-69
2022/04/08 00:08:51;;;;;;;24.55;3.97;;;8.20;99.90;;;;;;5086527;28;20492;-68
2022/04/08 00:11:17;;;;;;;23.83;3.38;;;8.20;99.90;;;;;;5069680;28;20409;-69
2022/04/08 00:13:43;;;;;;;23.00;3.08;;;8.20;99.90;;;;;;5068754;28;20398;-70
2022/04/08 00:16:09;;;;;;;20.88;3.53;;;8.20;99.80;;;;;;5084087;28;20797;-68
2022/04/08 00:18:36;;;;;;;21.65;2.95;;;8.20;99.60;;;;;;5065556;28;20402;-69
2022/04/08 00:21:03;;;;;;;;;;;8.10;99.10;;;;;;5069774;28;20118;-68
2022/04/08 00:23:29;;;;;;;;;;;7.70;99.30;;;;;;5089892;28;19912;-70
2022/04/08 00:25:55;;;;;;;;;;;7.40;99.90;;;;;;5071291;28;19923;-69
2022/04/08 00:28:20;;;;;;;;;;;7.10;99.90;;;;;;5089163;28;19908;-71
2022/04/08 00:30:46;;;;;;;;;;;7.00;99.90;;;;;;5067803;28;19915;-70
2022/04/08 00:33:12;;;;;;;;;;;6.90;99.90;;;;;;5090785;28;19922;-69
2022/04/08 00:35:37;;;;;;;;;;;6.80;99.90;;;;;;5071194;28;19907;-70
2022/04/08 00:38:03;;;;;;;;;;;6.70;99.90;;;;;;5088681;28;20022;-69
2022/04/08 00:40:28;;;;;;;;;;;6.70;99.90;;;;;;5069997;28;19908;-69
2022/04/08 00:42:54;;;;;;;;;;;6.70;99.90;;;;;;5090099;28;20314;-70
2022/04/08 00:45:20;;;;;;;;;;;6.70;99.90;;;;;;5087576;28;19999;-68
2022/04/08 00:47:45;;;;;;;;;;;6.70;99.90;;;;;;5090602;28;19918;-69
2022/04/08 00:50:12;;;;;;;20.13;2.42;;;6.70;99.90;;;;;;5085833;28;20118;-68
2022/04/08 00:52:41;;;;;;;17.80;2.63;;;6.70;99.90;;;;;;5065402;28;20410;-69
2022/04/08 00:55:07;;;;;;;19.90;2.75;;;7.10;99.60;;;;;;5068832;28;21009;-70
2022/04/08 00:57:33;;;;;;;19.00;3.10;;;7.50;98.30;;;;;;5069196;28;20952;-69
2022/04/08 01:00:19;;;;;;;21.83;2.90;;;7.70;97.30;;;;;;5068508;28;20410;-69
2022/04/08 01:02:44;;;;;;;16.50;2.60;;;7.80;96.60;;;;;;5087277;28;20394;-69
2022/04/08 01:05:10;;;;;;;21.57;2.70;;;7.80;96.20;;;;;;5081121;28;20471;-70
2022/04/08 01:07:35;;;;;;;20.17;3.03;;;7.90;96.20;;;;;;5070026;28;20927;-69
2022/04/08 01:10:01;;;;;;;24.30;3.00;;;7.90;96.20;;;;;;5067500;28;20418;-70
2022/04/08 01:12:27;;;;;;;21.37;3.13;;;7.90;96.20;;;;;;5088277;28;20412;-70
2022/04/08 01:14:57;;;;;;;21.33;2.80;;;7.90;96.40;;;;;;5084407;28;20423;-69
2022/04/08 01:17:23;;;;;;;17.35;2.42;;;7.90;96.10;;;;;;5068972;28;20496;-70
2022/04/08 01:19:48;;;;;;;15.63;2.17;;;7.90;95.00;;;;;;5066701;28;20493;-70
2022/04/08 01:22:14;;;;;;;13.45;2.17;;;7.90;94.20;;;;;;5067844;28;20406;-69
2022/04/08 01:24:42;;;;;;;12.73;2.20;;;7.90;94.00;;;;;;5065340;28;20810;-69
2022/04/08 01:27:09;;;;;;;14.07;2.30;;;7.80;93.40;;;;;;5070046;28;20418;-69
2022/04/08 01:29:34;;;;;;;12.90;2.30;;;7.80;93.10;;;;;;5067425;28;20497;-69
2022/04/08 01:32:01;;;;;;;14.48;1.98;;;7.80;93.00;;;;;;5084297;28;20485;-69
2022/04/08 01:34:26;;;;;;;12.48;2.00;;;7.80;92.60;;;;;;5065726;28;20573;-69
2022/04/08 01:36:52;;;;;;;14.17;2.10;;;7.80;92.70;;;;;;5066964;28;20413;-68
2022/04/08 01:39:17;;;;;;;13.45;2.10;;;7.80;92.70;;;;;;5084993;28;20440;-71
2022/04/08 01:41:43;;;;;;;15.20;2.30;;;7.80;93.10;;;;;;5086111;28;20758;-71
2022/04/08 01:44:09;;;;;;;13.13;2.10;;;7.80;93.30;;;;;;5085569;28;20489;-70
2022/04/08 01:46:34;;;;;;;14.93;2.38;;;7.70;93.50;;;;;;5051964;28;20458;-70
2022/04/08 01:49:00;;;;;;;19.70;2.43;;;7.70;93.90;;;;;;5067691;28;20449;-72
2022/04/08 01:51:25;;;;;;;15.40;2.40;;;7.70;94.00;;;;;;5069041;28;20413;-72
2022/04/08 01:53:51;;;;;;;14.55;2.55;;;7.70;94.20;;;;;;5069257;28;20971;-71
2022/04/08 01:56:16;;;;;;;19.83;2.83;;;7.70;94.50;;;;;;5071200;28;20459;-71
2022/04/08 01:58:42;;;;;;;17.58;2.70;;;7.70;94.80;;;;;;5072273;28;20409;-70
2022/04/08 02:01:08;;;;;;;17.90;2.90;;;7.70;94.90;;;;;;5087528;28;20393;-70
2022/04/08 02:03:33;;;;;;;18.13;2.67;;;7.70;95.10;;;;;;5090327;28;20500;-72
2022/04/08 02:06:00;;;;;;;17.17;2.70;;;7.70;95.00;;;;;;5089358;28;20409;-71
2022/04/08 02:08:25;;;;;;;18.33;2.65;;;7.80;95.30;;;;;;5072886;28;20890;-71
2022/04/08 02:10:53;;;;;;;14.67;2.70;;;7.80;95.40;;;;;;5071406;28;20402;-70
2022/04/08 02:13:20;;;;;;;15.23;2.55;;;7.80;95.60;;;;;;5089412;28;20482;-68
2022/04/08 02:15:46;;;;;;;15.32;2.63;;;7.70;95.90;;;;;;5071241;28;20401;-70
2022/04/08 02:18:12;;;;;;;15.55;2.85;;;7.70;96.30;;;;;;5068565;28;20445;-69
2022/04/08 02:20:39;;;;;;;14.80;2.70;;;7.80;96.60;;;;;;5087540;28;20931;-69
2022/04/08 02:23:05;;;;;;;20.30;4.00;;;7.80;96.80;;;;;;5072224;28;20558;-69
2022/04/08 02:25:31;;;;;;;13.93;2.57;;;7.80;97.00;;;;;;5088369;28;20665;-69
2022/04/08 02:27:57;;;;;;;18.35;2.78;;;7.80;97.00;;;;;;5089226;28;20974;-68
2022/04/08 02:30:23;;;;;;;12.13;2.22;;;7.90;96.90;;;;;;5085028;28;20433;-69
2022/04/08 02:32:49;;;;;;;22.30;3.00;;;7.90;96.90;;;;;;5072034;28;20411;-69
2022/04/08 02:35:15;;;;;;;11.63;2.67;;;7.90;96.70;;;;;;5088235;28;20454;-70
2022/04/08 02:37:40;;;;;;;18.55;2.90;;;7.80;96.80;;;;;;5069713;28;20956;-68
2022/04/08 02:40:07;;;;;;;18.57;3.07;;;7.80;96.60;;;;;;5088349;28;20414;-70
2022/04/08 02:42:32;;;;;;;14.10;2.57;;;7.80;96.80;;;;;;5088022;28;20437;-69
2022/04/08 02:44:58;;;;;;;15.00;2.75;;;7.80;96.80;;;;;;5088270;28;20410;-70
2022/04/08 02:47:24;;;;;;;15.57;2.75;;;7.80;96.90;;;;;;5087387;28;20428;-70
2022/04/08 02:49:50;;;;;;;23.30;3.00;;;7.90;97.00;;;;;;5088820;28;20500;-69
2022/04/08 02:52:15;;;;;;;19.75;3.00;;;7.90;97.00;;;;;;5070095;28;20425;-70
2022/04/08 02:54:41;;;;;;;18.90;3.00;;;7.90;97.00;;;;;;5089158;28;20435;-71
2022/04/08 02:57:07;;;;;;;14.60;2.80;;;7.90;97.10;;;;;;5071614;28;20406;-70
2022/04/08 02:59:33;;;;;;;15.33;2.90;;;7.90;97.30;;;;;;5086883;28;20405;-69
2022/04/08 03:01:59;;;;;;;15.00;2.63;;;7.90;97.10;;;;;;5072257;28;20456;-69
2022/04/08 03:04:25;;;;;;;12.73;2.65;;;7.80;97.10;;;;;;5086007;28;20418;-68
2022/04/08 03:06:52;;;;;;;20.63;3.00;;;7.80;97.00;;;;;;5089845;28;20424;-70
2022/04/08 03:09:17;;;;;;;13.68;2.80;;;7.80;96.90;;;;;;5068872;28;20621;-69
2022/04/08 03:11:43;;;;;;;11.05;2.97;;;7.80;96.90;;;;;;5071373;28;21272;-69
2022/04/08 03:14:08;;;;;;;14.20;2.80;;;7.80;96.90;;;;;;5070372;28;20913;-70
2022/04/08 03:16:34;;;;;;;15.02;2.60;;;7.70;97.00;;;;;;5071916;28;20723;-70
2022/04/08 03:19:00;;;;;;;16.73;2.80;;;7.80;97.20;;;;;;5068198;28;20423;-70
2022/04/08 03:21:27;;;;;;;18.75;2.50;;;7.80;97.30;;;;;;5070453;28;20940;-69
2022/04/08 03:23:53;;;;;;;12.82;2.63;;;7.80;97.50;;;;;;5068796;28;20767;-70
2022/04/08 03:26:19;;;;;;;16.73;2.80;;;7.80;97.50;;;;;;5088188;28;20421;-69
2022/04/08 03:28:44;;;;;;;17.55;2.35;;;7.80;97.50;;;;;;5068365;28;20409;-70
2022/04/08 03:31:11;;;;;;;13.17;2.47;;;7.80;97.50;;;;;;5089080;28;20899;-69
2022/04/08 03:33:41;;;;;;;14.80;2.47;;;7.80;97.30;;;;;;5086053;28;20414;-69
2022/04/08 03:36:07;;;;;;;13.13;2.38;;;7.80;97.40;;;;;;5085318;28;21833;-69
2022/04/08 03:38:32;;;;;;;15.27;2.38;;;7.80;97.40;;;;;;5069986;28;20476;-69
2022/04/08 03:40:58;;;;;;;17.33;2.45;;;7.70;97.30;;;;;;5069899;28;20817;-69
2022/04/08 03:43:24;;;;;;;17.43;2.97;;;7.70;97.50;;;;;;5081163;28;20551;-70
2022/04/08 03:45:49;;;;;;;14.30;2.83;;;7.70;97.60;;;;;;5086577;28;20424;-70
2022/04/08 03:48:15;;;;;;;15.60;2.50;;;7.70;97.80;;;;;;5067396;28;20410;-70
2022/04/08 03:50:40;;;;;;;16.37;2.83;;;7.70;97.90;;;;;;5069096;28;20481;-72
2022/04/08 03:53:09;;;;;;;18.35;2.65;;;7.60;97.70;;;;;;5086811;28;20418;-69
2022/04/08 03:55:35;;;;;;;17.48;2.53;;;7.70;97.60;;;;;;5089244;28;20558;-69
2022/04/08 03:58:01;;;;;;;14.77;2.53;;;7.70;97.70;;;;;;5070265;28;20489;-70
2022/04/08 04:00:27;;;;;;;16.33;2.72;;;7.60;97.90;;;;;;5085008;28;20406;-70
2022/04/08 04:02:52;;;;;;;17.03;2.80;;;7.60;98.00;;;;;;5086604;28;21172;-70
2022/04/08 04:05:18;;;;;;;13.57;2.75;;;7.60;98.10;;;;;;5088149;28;20842;-70
2022/04/08 04:07:44;;;;;;;22.25;3.05;;;7.60;98.30;;;;;;5068056;28;20404;-70
2022/04/08 04:10:11;;;;;;;19.90;3.20;;;7.60;98.50;;;;;;5068954;28;20494;-70
2022/04/08 04:12:38;;;;;;;14.27;2.60;;;7.60;98.60;;;;;;5068251;28;20417;-70
2022/04/08 04:15:05;;;;;;;17.47;2.67;;;7.60;98.50;;;;;;5083454;28;21269;-69
2022/04/08 04:17:30;;;;;;;17.10;2.90;;;7.60;98.60;;;;;;5085429;28;20398;-70
2022/04/08 04:19:56;;;;;;;16.40;2.40;;;7.60;98.60;;;;;;5068101;28;20416;-71
2022/04/08 04:22:22;;;;;;;16.63;2.70;;;7.60;98.70;;;;;;5066974;28;20449;-68
2022/04/08 04:24:47;;;;;;;17.88;2.85;;;7.60;98.90;;;;;;5068858;28;20489;-69
2022/04/08 04:27:13;;;;;;;16.00;2.83;;;7.60;99.00;;;;;;5087706;28;20410;-68
2022/04/08 04:29:38;;;;;;;19.65;3.00;;;7.50;99.10;;;;;;5067853;28;20910;-69
2022/04/08 04:32:06;;;;;;;19.00;3.20;;;7.60;99.20;;;;;;5086083;28;20519;-68
2022/04/08 04:34:33;;;;;;;19.85;2.97;;;7.50;99.00;;;;;;5082631;28;21179;-68
2022/04/08 04:36:59;;;;;;;14.07;2.53;;;7.50;98.70;;;;;;5063945;28;20419;-69
2022/04/08 04:39:24;;;;;;;16.35;2.58;;;7.50;98.60;;;;;;5078125;28;20518;-70
2022/04/08 04:41:50;;;;;;;17.90;2.90;;;7.50;98.60;;;;;;5066783;28;20423;-71
2022/04/08 04:44:15;;;;;;;20.08;3.13;;;7.50;98.60;;;;;;5083362;28;20511;-70
2022/04/08 04:46:43;;;;;;;19.83;2.80;;;7.50;98.70;;;;;;5085086;28;20421;-71
2022/04/08 04:49:10;;;;;;;17.42;2.92;;;7.50;98.80;;;;;;5081295;28;20413;-69
2022/04/08 04:51:35;;;;;;;21.65;2.95;;;7.50;98.80;;;;;;5080314;28;20413;-71
2022/04/08 04:54:01;;;;;;;17.50;2.90;;;7.50;98.60;;;;;;5050343;28;20417;-71
2022/04/08 04:56:27;;;;;;;19.07;2.80;;;7.50;98.60;;;;;;5067644;28;20397;-72
2022/04/08 04:58:53;;;;;;;18.13;2.83;;;7.50;98.50;;;;;;5079053;28;20419;-76
2022/04/08 05:01:18;;;;;;;17.60;2.85;;;7.50;98.40;;;;;;5067033;28;20940;-71
2022/04/08 05:03:44;;;;;;;17.23;2.83;;;7.50;98.20;;;;;;5082869;28;20422;-71
2022/04/08 05:06:10;;;;;;;19.00;2.60;;;7.50;98.20;;;;;;5069533;28;20394;-71
2022/04/08 05:08:35;;;;;;;17.23;2.80;;;7.50;98.10;;;;;;5080438;28;20445;-70
2022/04/08 05:11:01;;;;;;;16.50;2.70;;;7.50;98.00;;;;;;5082955;28;20475;-69
2022/04/08 05:13:27;;;;;;;22.30;3.30;;;7.60;98.00;;;;;;5064642;28;20512;-70
2022/04/08 05:15:52;;;;;;;19.65;2.80;;;7.60;97.90;;;;;;5085650;28;20418;-70
2022/04/08 05:18:18;;;;;;;18.87;2.80;;;7.60;97.80;;;;;;5065591;28;20416;-70
2022/04/08 05:20:43;;;;;;;13.80;2.55;;;7.60;97.70;;;;;;5087689;28;20654;-70
2022/04/08 05:23:09;;;;;;;15.70;2.43;;;7.60;97.60;;;;;;5083076;28;20433;-71
2022/04/08 05:25:35;;;;;;;18.58;2.80;;;7.70;97.60;;;;;;5065578;28;20409;-70
2022/04/08 05:28:00;;;;;;;17.87;2.53;;;7.60;97.50;;;;;;5065849;28;20817;-70
2022/04/08 05:30:26;;;;;;;16.05;3.00;;;7.70;97.60;;;;;;5083032;28;22507;-69
2022/04/08 05:32:52;;;;;;;13.37;2.77;;;7.70;97.50;;;;;;5081688;28;21212;-71
2022/04/08 05:35:18;;;;;;;17.95;2.67;;;7.70;97.50;;;;;;5086721;28;20406;-70
2022/04/08 05:37:46;;;;;;;17.70;2.60;;;7.80;97.40;;;;;;5066134;28;20893;-69
2022/04/08 05:40:14;;;;;;;17.90;2.67;;;7.80;97.30;;;;;;5083689;28;20411;-70
2022/04/08 05:42:42;;;;;;;21.63;2.97;;;7.80;97.30;;;;;;5064881;28;20419;-69
2022/04/08 05:45:09;;;;;;;20.92;2.88;;;7.90;97.20;;;;;;5086084;28;20488;-69
2022/04/08 05:47:35;;;;;;;25.50;3.33;;;7.90;97.30;;;;;;5082953;28;20483;-70
2022/04/08 05:50:01;;;;;;;17.92;2.40;;;7.90;97.30;;;;;;5087288;28;20431;-69
2022/04/08 05:52:26;;;;;;;16.52;2.65;;;8.00;97.40;;;;;;5082824;28;20509;-70
2022/04/08 05:54:52;;;;;;;15.17;2.50;;;8.00;97.30;;;;;;5085548;28;20477;-69
2022/04/08 05:57:21;;;;;;;24.45;5.00;;;8.10;97.30;;;;;;5066341;28;20410;-70
2022/04/08 05:59:47;;;;;;;15.75;2.63;;;8.10;97.30;;;;;;5079184;28;20402;-72
2022/04/08 06:02:13;;;;;;;25.40;3.72;;;8.10;97.40;;;;;;5082080;28;20413;-71
2022/04/08 06:04:39;;;;;;;23.57;3.50;;;8.10;97.40;;;;;;5048883;28;20462;-69
2022/04/08 06:07:05;;;;;;;17.90;2.60;;;8.20;97.50;;;;;;5085598;28;20450;-69
2022/04/08 06:09:30;;;;;;;18.27;2.60;;;8.20;97.50;;;;;;5064544;28;20398;-70
2022/04/08 06:11:56;;;;;;;16.10;2.40;;;8.30;97.40;;;;;;5082562;28;20453;-68
2022/04/08 06:14:21;;;;;;;14.93;2.90;;;8.30;97.10;;;;;;5086146;28;20417;-70
2022/04/08 06:16:47;;;;;;;16.98;2.90;;;8.30;97.00;;;;;;5084659;28;20406;-70
2022/04/08 06:19:13;;;;;;;20.73;3.53;;;8.40;96.90;;;;;;5066621;28;20406;-68
2022/04/08 06:21:38;;;;;;;16.55;2.88;;;8.40;96.70;;;;;;5078211;28;20470;-68
2022/04/08 06:24:04;;;;;;;17.67;3.20;;;8.50;96.60;;;;;;5085472;28;20414;-68
2022/04/08 06:26:32;;;;;;;18.92;2.92;;;8.50;96.50;;;;;;5084579;28;20421;-68
2022/04/08 06:28:58;;;;;;;14.53;2.90;;;8.50;96.50;;;;;;5066085;28;20417;-69
2022/04/08 06:31:28;;;;;;;16.63;2.85;;;8.50;96.40;;;;;;5066073;28;20413;-69
2022/04/08 06:33:57;;;;;;;16.02;2.70;;;8.50;96.40;;;;;;5050616;28;20417;-69
2022/04/08 06:36:23;;;;;;;16.83;2.95;;;8.50;96.50;;;;;;5083723;28;20417;-70
2022/04/08 06:38:48;;;;;;;15.25;2.80;;;8.50;96.40;;;;;;5069830;28;20401;-69
2022/04/08 06:41:14;;;;;;;15.90;2.70;;;8.50;96.20;;;;;;5069319;28;20456;-69
2022/04/08 06:43:40;;;;;;;13.40;2.60;;;8.50;96.20;;;;;;5054989;28;20928;-70
2022/04/08 06:46:05;;;;;;;14.63;2.60;;;8.50;96.10;;;;;;5086153;28;20413;-69
2022/04/08 06:48:32;;;;;;;20.38;3.05;;;8.50;96.10;;;;;;5055628;28;20420;-70
2022/04/08 06:51:00;;;;;;;16.27;2.90;;;8.60;96.10;;;;;;5088027;28;20925;-69
2022/04/08 06:53:26;;;;;;;14.07;2.40;;;8.60;96.00;;;;;;5088762;28;20447;-69
2022/04/08 06:55:52;;;;;;;11.20;2.42;;;8.60;95.80;;;;;;5068719;28;20402;-68
2022/04/08 06:58:19;;;;;;;16.50;2.83;;;8.70;95.50;;;;;;5089616;28;20495;-69
2022/04/08 07:00:45;;;;;;;15.35;2.60;;;8.70;95.60;;;;;;5068463;28;20454;-71
2022/04/08 07:03:10;;;;;;;14.90;2.90;;;8.70;95.60;;;;;;5090855;28;20442;-70
2022/04/08 07:05:36;;;;;;;14.52;2.55;;;8.80;95.80;;;;;;5086666;28;20417;-69
2022/04/08 07:08:02;;;;;;;12.93;2.33;;;8.90;95.50;;;;;;5067818;28;20921;-70
2022/04/08 07:10:28;;;;;;;17.33;2.40;;;9.00;95.40;;;;;;5087477;28;20424;-69
2022/04/08 07:12:54;;;;;;;13.40;2.58;;;9.00;95.30;;;;;;5087365;28;20402;-69
2022/04/08 07:15:20;;;;;;;17.40;2.60;;;9.10;95.50;;;;;;5086467;28;20413;-72
2022/04/08 07:17:45;;;;;;;16.57;2.43;;;9.20;95.00;;;;;;5088345;28;20413;-70
2022/04/08 07:20:13;;;;;;;13.85;2.88;;;9.30;94.80;;;;;;5085870;28;20417;-71
2022/04/08 07:22:41;;;;;;;12.60;2.47;;;9.30;94.70;;;;;;5071371;28;20501;-72
2022/04/08 07:25:07;;;;;;;16.23;2.70;;;9.40;94.50;;;;;;5085151;28;20423;-72
2022/04/08 07:27:45;;;;;;;17.55;3.03;;;9.50;94.30;;;;;;5065229;28;20429;-72
2022/04/08 07:30:11;;;;;;;12.17;2.20;;;9.50;94.00;;;;;;5086603;28;20513;-72
2022/04/08 07:32:37;;;;;;;17.55;4.43;;;9.50;93.60;;;;;;5052216;28;20504;-71
2022/04/08 07:35:03;;;;;;;12.93;2.50;;;9.50;93.40;;;;;;5067047;28;20493;-70
2022/04/08 07:37:32;;;;;;;13.50;2.53;;;9.50;93.30;;;;;;5090010;28;20892;-71
2022/04/08 07:39:58;;;;;;;18.15;2.70;;;9.50;93.30;;;;;;5086647;28;20405;-72
2022/04/08 07:42:27;;;;;;;17.25;2.65;;;9.60;93.60;;;;;;5084850;28;20417;-71
2022/04/08 07:44:53;;;;;;;15.27;2.83;;;9.60;93.60;;;;;;5087190;28;20471;-72
2022/04/08 07:47:20;;;;;;;14.20;2.65;;;9.60;93.30;;;;;;5087756;28;20394;-70
2022/04/08 07:49:46;;;;;;;13.50;2.72;;;9.70;93.30;;;;;;5086093;28;20417;-70
2022/04/08 07:52:13;;;;;;;13.27;2.60;;;9.70;93.10;;;;;;5084991;28;20439;-71
2022/04/08 07:54:38;;;;;;;13.37;2.60;;;9.80;93.10;;;;;;5089186;28;20493;-72
2022/04/08 07:57:04;;;;;;;13.38;2.60;;;9.90;92.80;;;;;;5085187;28;20488;-70
2022/04/08 07:59:30;;;;;;;14.00;2.57;;;10.00;92.60;;;;;;5068157;28;20398;-69
2022/04/08 08:01:55;;;;;;;16.30;2.60;;;10.00;92.60;;;;;;5083587;28;20410;-69
2022/04/08 08:04:22;;;;;;;13.30;2.60;;;10.20;92.40;;;;;;5086777;28;20470;-71
2022/04/08 08:06:48;;;;;;;14.03;3.10;;;10.30;92.10;;;;;;5084147;28;20427;-70
2022/04/08 08:09:13;;;;;;;16.40;2.92;;;10.30;91.60;;;;;;5084943;28;20425;-71
2022/04/08 08:11:39;;;;;;;12.57;3.00;;;10.40;91.40;;;;;;5068191;28;20421;-71
2022/04/08 08:14:05;;;;;;;17.23;3.20;;;10.40;91.20;;;;;;5066227;28;20501;-70
2022/04/08 08:16:30;;;;;;;12.55;2.90;;;10.40;91.40;;;;;;5085584;28;20489;-72
2022/04/08 08:18:57;;;;;;;14.50;2.77;;;10.40;91.70;;;;;;5089702;28;20393;-70
2022/04/08 08:21:26;;;;;;;16.77;2.85;;;10.40;91.30;;;;;;5067947;28;21770;-70
2022/04/08 08:23:52;;;;;;;14.55;3.17;;;10.50;90.90;;;;;;5069443;28;20397;-68
2022/04/08 08:26:18;;;;;;;15.70;2.88;;;10.40;90.80;;;;;;5068668;28;20493;-68
2022/04/08 08:28:44;;;;;;;13.45;2.60;;;10.40;91.10;;;;;;5087656;28;20489;-69
2022/04/08 08:31:09;;;;;;;13.27;3.05;;;10.30;90.60;;;;;;5086337;28;20815;-68
2022/04/08 08:33:35;;;;;;;12.60;2.53;;;10.40;90.30;;;;;;5066788;28;20498;-67
2022/04/08 08:36:02;;;;;;;14.73;3.50;;;10.50;89.70;;;;;;5085326;28;20759;-68
2022/04/08 08:38:27;;;;;;;12.77;3.00;;;10.70;89.60;;;;;;5085389;28;20429;-68
2022/04/08 08:40:53;;;;;;;13.17;2.93;;;10.80;89.60;;;;;;5068544;28;20406;-70
2022/04/08 08:43:19;;;;;;;10.77;2.65;;;10.90;88.00;;;;;;5085713;28;20767;-69
2022/04/08 08:45:47;;;;;;;13.38;2.75;;;11.00;87.80;;;;;;5084814;28;20444;-72
2022/04/08 08:48:14;;;;;;;11.60;2.13;;;11.00;87.10;;;;;;5087714;28;20414;-69
2022/04/08 08:50:46;;;;;;;12.90;2.40;;;11.10;86.30;;;;;;5065460;28;20408;-71
2022/04/08 08:53:15;;;;;;;;;;;11.30;85.70;;;;;;5081782;28;20358;-69
2022/04/08 08:55:41;;;;;;;;;;;10.90;88.10;;;;;;5069431;28;19908;-71
2022/04/08 08:58:08;;;;;;;11.23;2.17;;;10.70;90.20;;;;;;5088613;28;20188;-67
2022/04/08 09:00:35;;;;;;;12.40;2.65;;;10.80;91.20;;;;;;5083750;28;20186;-69
2022/04/08 09:03:03;;;;;;;15.70;2.72;;;10.80;91.00;;;;;;5070113;28;20642;-69
2022/04/08 09:05:29;;;;;;;;;;;10.60;90.90;;;;;;5082826;28;20054;-69
2022/04/08 09:07:57;;;;;;;;;;;10.50;91.00;;;;;;5070410;28;19947;-69
2022/04/08 09:10:33;;;;;;;;;;;10.30;91.80;;;;;;5088517;28;19919;-70
2022/04/08 09:13:00;;;;;;;;;;;10.40;91.90;;;;;;5052911;28;19947;-69
2022/04/08 09:15:26;;;;;;;;;;;10.40;92.00;;;;;;5085795;28;20368;-70
2022/04/08 09:17:52;;;;;;;;;;;10.50;92.10;;;;;;5086633;28;19915;-71
2022/04/08 09:20:19;;;;;;;;;;;10.50;92.20;;;;;;5088663;28;19915;-72
2022/04/08 09:22:52;;;;;;;;;;;10.40;92.20;;;;;;5068494;28;19911;-69
2022/04/08 09:25:19;;;;;;;;;;;10.50;92.30;;;;;;5084284;28;19916;-71
2022/04/08 09:27:45;;;;;;;;;;;10.40;92.20;;;;;;5065271;28;20035;-70
2022/04/08 09:30:17;;;;;;;;;;;10.40;92.40;;;;;;5088689;28;20002;-69
2022/04/08 09:32:43;;;;;;;;;;;10.40;92.40;;;;;;5067085;28;19938;-68
2022/04/08 09:35:18;;;;;;;11.77;2.70;;;10.30;92.40;;;;;;5087511;28;20647;-71
2022/04/08 09:37:55;;;;;;;15.43;2.40;;;10.20;92.20;;;;;;5085286;28;20683;-69
2022/04/08 09:40:23;;;;;;;13.52;2.70;;;10.20;92.10;;;;;;5084610;28;20573;-71
2022/04/08 09:42:49;;;;;;;12.15;2.47;;;10.20;91.90;;;;;;5085631;28;20192;-69
2022/04/08 09:45:26;;;;;;;19.63;2.72;;;10.10;92.00;;;;;;5087436;28;20261;-70
2022/04/08 09:47:51;;;;;;;18.48;2.70;;;10.10;92.00;;;;;;5085491;28;20181;-69
2022/04/08 09:50:17;;;;;;;15.32;2.47;;;10.20;92.10;;;;;;5068088;28;20239;-70
2022/04/08 09:52:45;;;;;;;18.35;2.90;;;10.20;92.20;;;;;;5051570;28;20232;-69
2022/04/08 09:55:13;;;;;;;19.55;2.55;;;10.30;92.30;;;;;;5068639;28;20193;-67
2022/04/08 09:57:39;;;;;;;11.82;2.20;;;10.30;92.20;;;;;;5067659;28;20278;-70
2022/04/08 10:00:07;;;;;;;6.30;1.77;;;10.30;92.10;;;;;;5067502;28;20186;-71
2022/04/08 10:02:35;;;;;;;10.98;2.60;;;10.40;92.10;;;;;;5068104;28;20187;-70
2022/04/08 10:05:02;;;;;;;16.42;2.67;;;10.40;92.10;;;;;;5070033;28;20204;-70
2022/04/08 10:07:29;;;;;;;17.27;2.92;;;10.40;92.00;;;;;;5085410;28;20196;-74
2022/04/08 10:10:18;;;;;;;12.18;2.40;;;10.30;92.10;;;;;;5084464;28;20635;-70
2022/04/08 10:12:52;;;;;;;12.07;2.30;;;10.30;92.10;;;;;;5085479;28;20205;-69
2022/04/08 10:15:40;;;;;;;13.48;2.72;;;10.40;92.20;;;;;;5089840;28;20292;-70
2022/04/08 10:18:06;;;;;;;;;;;10.50;92.30;;;;;;5090264;28;20074;-70
2022/04/08 10:20:32;;;;;;;;;;;10.80;92.70;;;;;;5091556;28;19908;-70
2022/04/08 10:23:11;;;;;;;;;;;11.30;92.90;;;;;;5090491;28;19907;-71
2022/04/08 10:25:41;;;;;;;;;;;11.60;92.90;;;;;;5090530;28;19920;-69
2022/04/08 10:28:07;;;;;;;;;;;11.70;92.80;;;;;;5070752;28;20403;-68
2022/04/08 10:30:35;;;;;;;;;;;11.90;92.80;;;;;;5074846;28;19912;-70
2022/04/08 10:33:05;;;;;;;;;;;12.20;93.20;;;;;;5090076;28;21008;-68
2022/04/08 10:35:31;;;;;;;;;;;12.30;92.60;;;;;;5089792;28;19969;-69
2022/04/08 10:38:00;;;;;;;;;;;12.20;93.00;;;;;;5087788;28;20412;-70
2022/04/08 10:40:36;;;;;;;;;;;12.00;92.90;;;;;;5074680;28;19911;-69
2022/04/08 10:43:03;;;;;;;;;;;11.80;93.00;;;;;;5072692;28;19908;-69
2022/04/08 10:45:29;;;;;;;;;;;11.60;93.00;;;;;;5089754;28;20018;-69
2022/04/08 10:47:57;;;;;;;10.27;2.53;;;11.50;92.80;;;;;;5086201;28;20555;-69
2022/04/08 10:50:28;;;;;;;15.03;2.97;;;12.30;86.60;;;;;;5068810;28;21096;-68
2022/04/08 10:53:04;;;;;;;9.52;2.50;;;12.90;82.20;;;;;;5087346;28;20748;-70
2022/04/08 10:55:29;;;;;;;14.88;2.42;;;13.30;79.80;;;;;;5088347;28;20413;-71
2022/04/08 10:57:57;;;;;;;11.95;2.53;;;13.40;77.40;;;;;;5068326;28;20402;-70
2022/04/08 11:00:25;;;;;;;12.73;2.50;;;13.40;77.60;;;;;;5087592;28;20414;-71
2022/04/08 11:02:53;;;;;;;12.85;2.80;;;13.50;77.10;;;;;;5088274;28;20534;-69
2022/04/08 11:05:20;;;;;;;14.15;2.60;;;13.50;77.70;;;;;;5089797;28;20890;-69
2022/04/08 11:07:48;;;;;;;14.73;3.33;;;13.50;78.80;;;;;;5087869;28;20432;-71
2022/04/08 11:10:16;;;;;;;13.73;2.50;;;13.40;79.30;;;;;;5069271;28;20854;-68
2022/04/08 11:12:53;;;;;;;12.18;2.55;;;13.20;79.60;;;;;;5088094;28;20423;-70
2022/04/08 11:15:22;;;;;;;11.93;2.50;;;13.00;78.60;;;;;;5087594;28;20594;-69
2022/04/08 11:17:50;;;;;;;12.93;2.77;;;12.90;78.90;;;;;;5050541;28;20422;-70
2022/04/08 11:20:19;;;;;;;10.80;2.55;;;12.90;77.50;;;;;;5088378;28;20742;-69
2022/04/08 11:22:48;;;;;;;12.93;2.40;;;13.00;77.60;;;;;;5087976;28;20492;-70
2022/04/08 11:25:23;;;;;;;9.68;1.90;;;13.10;78.00;;;;;;5084526;28;20421;-69
2022/04/08 11:28:04;;;;;;;10.85;2.10;;;13.20;76.40;;;;;;5069310;28;20424;-68
2022/04/08 11:30:32;;;;;;;14.63;2.60;;;13.50;74.60;;;;;;5070136;28;20405;-70
2022/04/08 11:32:58;;;;;;;9.63;2.15;;;13.70;74.90;;;;;;5070490;28;20441;-72
2022/04/08 11:35:28;;;;;;;7.75;1.98;;;14.00;72.60;;;;;;5088467;28;20412;-71
2022/04/08 11:37:55;;;;;;;8.13;1.80;;;14.20;70.70;;;;;;5069395;28;20421;-71
2022/04/08 11:40:20;;;;;;;6.45;1.70;;;14.70;69.40;;;;;;5087166;28;20521;-70
2022/04/08 11:42:46;;;;;;;15.82;4.82;;;14.80;65.20;;;;;;5085238;28;20958;-71
2022/04/08 11:45:18;;;;;;;9.50;1.77;;;14.90;66.90;;;;;;5087533;28;20763;-73
2022/04/08 11:47:47;;;;;;;7.45;1.80;;;15.00;65.90;;;;;;5066567;28;20457;-71
2022/04/08 11:50:13;;;;;;;10.63;1.80;;;15.20;63.80;;;;;;5069463;28;20418;-71
2022/04/08 11:52:40;;;;;;;8.10;1.83;;;15.40;61.40;;;;;;5087019;28;20413;-72
2022/04/08 11:55:08;;;;;;;9.00;1.80;;;15.60;64.00;;;;;;5088903;28;20757;-71
2022/04/08 11:57:35;;;;;;;9.68;1.90;;;15.70;63.20;;;;;;5085802;28;20424;-70
2022/04/08 12:00:05;;;;;;;9.80;2.10;;;15.90;62.20;;;;;;5068025;28;21001;-70
2022/04/08 12:02:37;;;;;;;;;;;16.30;62.20;;;;;;5071389;28;20410;-70
2022/04/08 12:05:03;;;;;;;;;;;16.60;59.50;;;;;;5088974;28;19964;-69
2022/04/08 12:07:29;;;;;;;;;;;16.70;57.50;;;;;;5069025;28;19965;-71
2022/04/08 12:09:56;;;;;;;;;;;16.40;58.10;;;;;;5067808;28;19908;-69
2022/04/08 12:12:23;;;;;;;;;;;16.20;59.20;;;;;;5083742;28;19916;-70
2022/04/08 12:14:48;;;;;;;;;;;16.30;58.80;;;;;;5090098;28;20276;-68
2022/04/08 12:17:14;;;;;;;;;;;16.40;58.60;;;;;;5088130;28;19915;-70
2022/04/08 12:19:40;;;;;;;;;;;16.50;58.20;;;;;;5070767;28;19908;-69
2022/04/08 12:22:12;;;;;;;;;;;16.60;57.50;;;;;;5086862;28;20452;-71
2022/04/08 12:24:40;;;;;;;;;;;16.60;56.10;;;;;;5089638;28;20017;-70
2022/04/08 12:27:17;;;;;;;;;;;16.60;55.40;;;;;;5070191;28;19920;-70
2022/04/08 12:29:43;;;;;;;;;;;16.40;55.50;;;;;;5086757;28;20006;-68
2022/04/08 12:32:15;;;;;;;;;;;16.20;58.50;;;;;;5088913;28;20007;-70
2022/04/08 12:34:41;;;;;;;;;;;16.20;58.00;;;;;;5070835;28;19962;-68
2022/04/08 12:37:07;;;;;;;;;;;16.20;58.10;;;;;;5066940;28;19947;-68
2022/04/08 12:39:32;;;;;;;;;;;16.10;58.40;;;;;;5088478;28;20385;-69
2022/04/08 12:41:59;;;;;;;;;;;16.10;58.20;;;;;;5089173;28;19919;-67
2022/04/08 12:44:24;;;;;;;;;;;16.00;57.00;;;;;;5087404;28;19912;-71
2022/04/08 12:46:51;;;;;;;;;;;15.30;59.60;;;;;;5088108;28;19904;-73
2022/04/08 12:49:17;;;;;;;;;;;14.80;61.70;;;;;;5086873;28;19912;-72
2022/04/08 12:51:42;;;;;;;;;;;14.50;63.60;;;;;;5088413;28;20373;-72
2022/04/08 12:54:08;;;;;;;;;;;14.20;65.00;;;;;;5084897;28;19907;-71
2022/04/08 12:56:33;;;;;;;;;;;14.00;65.80;;;;;;5085836;28;19988;-69
2022/04/08 12:59:00;;;;;;;;;;;13.70;66.80;;;;;;5088047;28;19916;-73
2022/04/08 13:01:27;;;;;;;;;;;13.60;68.20;;;;;;5089991;28;20358;-71